Time;durP1;ratioP1;P1;durP2;ratioP2;P2;SDS_P1;SDS_P2;PMS_P1;PMS_P2;Temp;Humidity;BMP_temperature;BMP_pressure;BME280_temperature;BME280_humidity;BME280_pressure;Samples;Min_cycle;Max_cycle;Signal;HPM_P1;HPM_P2
2023/07/24 00:02:14;;;;;;;7.72;6.45;;;;;;;28.05;47.65;101408.56;21082041;28;20044;-67
2023/07/24 00:12:15;;;;;;;6.60;5.90;;;;;;;28.09;47.19;101431.28;21081950;28;20026;-68
2023/07/24 00:22:17;;;;;;;6.88;6.18;;;;;;;28.10;47.41;101438.56;21081530;28;20035;-68
2023/07/24 00:32:21;;;;;;;6.78;6.07;;;;;;;28.15;47.57;101466.56;21081033;28;20524;-68
2023/07/24 00:42:23;;;;;;;7.63;6.13;;;;;;;28.16;47.45;101471.03;21080232;28;20052;-68
2023/07/24 00:52:25;;;;;;;7.20;5.80;;;;;;;28.21;47.59;101481.34;21079547;28;20051;-68
2023/07/24 01:02:27;;;;;;;6.90;5.88;;;;;;;28.20;47.57;101494.56;21078300;28;20040;-68
2023/07/24 01:12:36;;;;;;;6.43;5.80;;;;;;;28.28;47.49;101527.59;21078496;28;20027;-68
2023/07/24 01:23:01;;;;;;;6.90;5.75;;;;;;;28.26;47.79;101543.13;21078121;28;20552;-68
2023/07/24 01:33:03;;;;;;;6.05;5.43;;;;;;;28.29;47.58;101554.59;21077601;28;20113;-69
2023/07/24 01:43:04;;;;;;;6.57;5.88;;;;;;;28.30;47.39;101573.13;21076363;28;20044;-68
2023/07/24 01:53:06;;;;;;;6.55;5.82;;;;;;;28.39;47.53;101592.13;21076016;28;20093;-67
2023/07/24 02:03:07;;;;;;;6.82;6.13;;;;;;;28.16;47.48;101557.44;21075494;28;20048;-68
2023/07/24 02:13:11;;;;;;;6.93;5.93;;;;;;;28.41;47.62;101610.38;21074897;28;20452;-68
2023/07/24 02:23:13;;;;;;;6.40;5.30;;;;;;;28.39;47.58;101609.00;21074942;28;20390;-68
2023/07/24 02:33:14;;;;;;;6.53;5.55;;;;;;;28.38;47.95;101602.56;21081202;28;20468;-67
2023/07/24 02:43:18;;;;;;;5.88;5.25;;;;;;;28.48;47.71;101609.94;21089128;28;20048;-69
2023/07/24 02:53:20;;;;;;;6.10;5.50;;;;;;;28.47;47.76;101608.28;21089448;28;20097;-68
2023/07/24 03:03:24;;;;;;;6.53;5.85;;;;;;;28.50;47.93;101622.56;21087683;28;20089;-68
2023/07/24 03:13:25;;;;;;;6.10;5.50;;;;;;;28.52;47.76;101619.41;21087678;28;20048;-68
2023/07/24 03:23:27;;;;;;;6.32;5.72;;;;;;;28.39;47.64;101611.81;21086117;28;20089;-68
2023/07/24 03:33:31;;;;;;;5.80;5.20;;;;;;;28.43;47.86;101615.69;21086282;28;20044;-68
2023/07/24 03:43:32;;;;;;;6.40;5.35;;;;;;;28.58;47.95;101635.03;21084847;28;20040;-68
2023/07/24 03:53:33;;;;;;;6.07;5.40;;;;;;;28.60;47.86;101646.81;21084128;28;20031;-68
2023/07/24 04:03:35;;;;;;;6.45;5.72;;;;;;;28.56;47.92;101654.22;21083909;28;20395;-68
2023/07/24 04:13:36;;;;;;;5.90;5.25;;;;;;;28.56;48.04;101648.59;21080933;28;20028;-68
2023/07/24 04:23:38;;;;;;;5.45;4.95;;;;;;;28.62;47.94;101664.22;21081874;28;20040;-69
2023/07/24 04:33:39;;;;;;;6.75;5.40;;;;;;;28.65;48.08;101662.75;21080201;28;20043;-68
2023/07/24 04:43:40;;;;;;;5.68;5.13;;;;;;;28.66;47.99;101670.88;21079822;28;20322;-67
2023/07/24 04:53:42;;;;;;;5.38;4.88;;;;;;;28.63;48.17;101666.72;21078782;28;20043;-68
2023/07/24 05:03:43;;;;;;;5.53;5.03;;;;;;;28.67;48.13;101678.19;21078801;28;20044;-68
2023/07/24 05:13:45;;;;;;;6.75;5.63;;;;;;;28.68;48.13;101674.22;21078093;28;20032;-68
2023/07/24 05:23:46;;;;;;;5.60;5.10;;;;;;;28.67;47.92;101664.09;21076254;28;20044;-68
2023/07/24 05:33:47;;;;;;;5.25;4.70;;;;;;;28.69;48.08;101664.63;21076703;28;20036;-68
2023/07/24 05:43:51;;;;;;;5.50;5.00;;;;;;;28.59;48.03;101643.19;21075167;28;20047;-68
2023/07/24 05:53:55;;;;;;;5.88;5.03;;;;;;;28.71;48.11;101662.31;21074952;28;20384;-68
2023/07/24 06:03:57;;;;;;;5.57;5.03;;;;;;;28.71;48.10;101662.31;21074988;28;20116;-69
2023/07/24 06:13:58;;;;;;;5.93;5.35;;;;;;;28.73;48.08;101665.66;21091664;28;20151;-68
2023/07/24 06:23:59;;;;;;;5.60;4.88;;;;;;;28.76;48.25;101659.38;21090880;28;20047;-68
2023/07/24 06:34:01;;;;;;;5.35;4.85;;;;;;;28.73;48.32;101664.84;21090900;28;20032;-67
2023/07/24 06:44:02;;;;;;;5.32;4.82;;;;;;;28.74;48.29;101674.94;21089627;28;20600;-69
2023/07/24 06:54:04;;;;;;;5.40;4.90;;;;;;;28.76;47.99;101686.72;21088842;28;20090;-67
2023/07/24 07:04:11;;;;;;;5.47;4.97;;;;;;;28.76;47.97;101689.53;21088183;28;20048;-68
2023/07/24 07:14:13;;;;;;;5.80;5.10;;;;;;;28.74;48.26;101680.56;21086841;28;20445;-67
2023/07/24 07:24:14;;;;;;;5.25;4.75;;;;;;;28.69;48.39;101678.72;21086472;28;20040;-67
2023/07/24 07:34:16;;;;;;;5.28;4.78;;;;;;;28.76;48.10;101686.72;21085968;28;20092;-68
2023/07/24 07:44:17;;;;;;;5.13;4.60;;;;;;;28.74;47.99;101701.13;21082634;28;20392;-68
2023/07/24 07:54:18;;;;;;;6.15;5.00;;;;;;;28.79;48.26;101698.19;21079762;28;20484;-68
2023/07/24 08:04:20;;;;;;;5.20;4.70;;;;;;;28.79;48.22;101703.81;21078736;28;20044;-68
2023/07/24 08:14:21;;;;;;;5.43;4.60;;;;;;;28.80;48.10;101708.28;21078059;28;20093;-68
2023/07/24 08:24:23;;;;;;;4.57;4.18;;;;;;;28.78;47.93;101709.78;21078436;28;20040;-67
2023/07/24 08:34:25;;;;;;;5.40;4.88;;;;;;;28.80;47.90;101711.13;21076111;28;20044;-67
2023/07/24 08:44:30;;;;;;;4.85;4.35;;;;;;;28.76;48.06;101698.81;21019169;28;1670975;-69
2023/07/24 08:54:35;;;;;;;5.53;4.85;;;;;;;28.71;48.20;101672.75;21078852;28;20121;-68
2023/07/24 09:04:42;;;;;;;5.78;5.18;;;;;;;28.78;48.09;101702.16;21078603;28;20093;-68
2023/07/24 09:14:45;;;;;;;4.95;4.45;;;;;;;28.78;48.05;101699.34;21078440;28;20101;-67
2023/07/24 09:24:55;;;;;;;5.85;5.25;;;;;;;28.78;48.05;101704.97;21077248;28;20133;-68
2023/07/24 09:34:57;;;;;;;5.13;4.53;;;;;;;28.78;47.94;101713.44;21076996;28;20028;-68
2023/07/24 09:44:59;;;;;;;5.55;4.32;;;;;;;28.79;47.97;101725.53;21074829;28;20059;-68
2023/07/24 09:55:05;;;;;;;4.95;4.45;;;;;;;28.80;48.03;101725.19;21075811;28;20051;-68
2023/07/24 10:05:07;;;;;;;6.93;4.68;;;;;;;28.76;48.18;101704.44;21075523;28;20085;-69
2023/07/24 10:15:09;;;;;;;5.43;4.93;;;;;;;28.75;48.05;101697.16;21075309;28;20032;-68
2023/07/24 10:25:11;;;;;;;5.40;4.88;;;;;;;28.78;47.94;101741.59;21073980;28;20424;-67
2023/07/24 10:35:17;;;;;;;4.80;4.30;;;;;;;28.80;48.21;101724.38;21075521;28;20028;-70
2023/07/24 10:45:19;;;;;;;5.73;4.70;;;;;;;28.60;48.07;101711.59;21074343;28;20109;-70
2023/07/24 10:55:24;;;;;;;5.80;4.88;;;;;;;28.77;47.93;101741.88;21081702;28;20317;-69
2023/07/24 11:05:26;;;;;;;5.15;4.40;;;;;;;28.76;48.05;101755.16;21088413;28;20031;-68
2023/07/24 11:15:27;;;;;;;5.13;4.53;;;;;;;28.77;48.02;101773.75;21087970;28;20070;-68
2023/07/24 11:25:29;;;;;;;5.25;4.63;;;;;;;28.78;47.75;101771.75;21086476;28;20105;-68
2023/07/24 11:35:30;;;;;;;4.82;4.32;;;;;;;28.75;48.11;101790.09;21085108;28;20055;-68
2023/07/24 11:45:42;;;;;;;4.80;4.10;;;;;;;28.68;48.22;101781.22;21084569;28;20048;-67
2023/07/24 11:55:43;;;;;;;4.93;4.43;;;;;;;28.76;48.05;101783.31;21083231;28;20052;-67
2023/07/24 12:05:45;;;;;;;5.55;4.30;;;;;;;28.75;48.09;101818.25;21081829;28;20113;-68
2023/07/24 12:15:46;;;;;;;4.80;4.22;;;;;;;28.77;47.95;101818.81;21083094;28;20051;-67
2023/07/24 12:25:51;;;;;;;4.35;3.95;;;;;;;28.78;48.13;101817.66;21081884;28;20043;-68
2023/07/24 12:35:55;;;;;;;5.32;4.82;;;;;;;28.74;48.09;101824.22;21081150;28;20421;-68
2023/07/24 12:45:56;;;;;;;5.57;4.47;;;;;;;28.77;48.00;101813.16;21080086;28;20105;-68
2023/07/24 12:55:57;;;;;;;4.93;4.43;;;;;;;28.77;48.31;101807.53;21079039;28;20048;-68
2023/07/24 13:06:00;;;;;;;5.25;4.40;;;;;;;28.77;48.34;101801.03;21079041;28;20044;-68
2023/07/24 13:16:02;;;;;;;4.57;4.15;;;;;;;28.78;48.03;101764.13;21079231;28;20525;-67
2023/07/24 13:26:04;;;;;;;4.30;3.90;;;;;;;28.77;48.10;101770.06;21077944;28;20028;-68
2023/07/24 13:36:08;;;;;;;5.05;4.55;;;;;;;28.79;48.26;101777.06;21076962;28;20044;-69
2023/07/24 13:46:09;;;;;;;5.05;4.55;;;;;;;28.72;48.34;101790.72;21075905;28;20043;-68
2023/07/24 13:56:11;;;;;;;4.28;3.88;;;;;;;28.76;48.19;101822.75;21075812;28;20440;-68
2023/07/24 14:06:12;;;;;;;5.03;4.53;;;;;;;27.94;46.47;101831.06;21074415;28;20036;-68
2023/07/24 14:16:13;;;;;;;5.28;4.72;;;;;;;27.62;51.62;101807.34;21076694;28;20040;-69
2023/07/24 14:26:15;;;;;;;4.85;4.20;;;;;;;28.00;51.00;101843.91;21077498;28;20040;-69
2023/07/24 14:36:16;;;;;;;4.60;4.15;;;;;;;28.25;50.01;101860.31;21090916;28;20044;-69
2023/07/24 14:46:17;;;;;;;5.03;4.53;;;;;;;28.31;49.64;101847.81;21090497;28;20097;-68
2023/07/24 14:56:20;;;;;;;4.60;4.15;;;;;;;28.36;49.10;101839.31;21082872;28;20388;-68
2023/07/24 15:06:21;;;;;;;5.40;4.90;;;;;;;28.44;49.00;101854.66;21089030;28;20540;-68
2023/07/24 15:16:23;;;;;;;5.32;4.28;;;;;;;28.48;49.04;101861.31;21088825;28;20097;-68
2023/07/24 15:26:24;;;;;;;4.93;4.43;;;;;;;28.49;48.81;101863.00;21086799;28;20097;-69
2023/07/24 15:36:26;;;;;;;4.82;4.30;;;;;;;28.45;48.76;101855.47;21086114;28;20040;-67
2023/07/24 15:46:28;;;;;;;4.90;4.40;;;;;;;28.60;48.79;101869.28;21085153;28;20040;-68
2023/07/24 15:56:33;;;;;;;5.10;4.60;;;;;;;28.54;48.85;101853.59;21084575;28;20465;-69
2023/07/24 16:06:34;;;;;;;4.97;4.30;;;;;;;28.65;48.82;101872.00;21084261;28;20488;-68
2023/07/24 16:16:36;;;;;;;5.22;4.53;;;;;;;28.68;48.57;101862.91;21083987;28;20028;-68
2023/07/24 16:26:38;;;;;;;5.38;4.38;;;;;;;28.65;48.67;101859.91;21082843;28;20031;-68
2023/07/24 16:36:40;;;;;;;5.13;4.57;;;;;;;27.97;47.21;101855.75;21082344;28;20054;-69
2023/07/24 16:46:41;;;;;;;5.00;4.50;;;;;;;27.59;47.31;101861.41;21081266;28;20391;-68
2023/07/24 16:56:42;;;;;;;4.82;4.40;;;;;;;27.32;47.27;101833.97;21079526;28;20036;-68
2023/07/24 17:06:46;;;;;;;5.30;4.80;;;;;;;27.14;47.10;101830.03;21079520;28;20445;-67
2023/07/24 17:16:48;;;;;;;4.70;4.20;;;;;;;27.01;47.50;101825.09;21078684;28;20044;-67
2023/07/24 17:26:49;;;;;;;5.13;4.45;;;;;;;26.89;47.44;101819.91;21078175;28;20028;-68
2023/07/24 17:36:50;;;;;;;4.95;4.32;;;;;;;26.79;47.10;101809.66;21077198;28;20553;-68
2023/07/24 17:46:52;;;;;;;5.82;5.22;;;;;;;26.69;47.48;101792.13;21076856;28;20414;-69
2023/07/24 17:56:54;;;;;;;5.13;4.30;;;;;;;26.27;47.74;101710.34;21076712;28;20093;-68
2023/07/24 18:06:56;;;;;;;6.30;5.28;;;;;;;26.57;47.56;101744.81;21089546;28;20052;-69
2023/07/24 18:16:57;;;;;;;5.35;4.85;;;;;;;26.51;47.86;101731.97;21093735;28;20375;-69
2023/07/24 18:26:58;;;;;;;4.85;4.35;;;;;;;26.40;47.92;101716.38;21092447;28;20077;-67
2023/07/24 18:37:00;;;;;;;5.53;4.93;;;;;;;26.32;47.79;101704.69;21091999;28;20028;-69
2023/07/24 18:47:01;;;;;;;5.78;5.10;;;;;;;26.29;48.58;101702.47;21089800;28;20036;-68
2023/07/24 18:57:03;;;;;;;5.22;4.72;;;;;;;26.33;48.49;101688.69;21089831;28;20040;-67
2023/07/24 19:07:04;;;;;;;5.75;5.10;;;;;;;26.27;48.55;101684.28;21088679;28;20040;-68
2023/07/24 19:17:06;;;;;;;6.43;5.50;;;;;;;26.14;48.50;101662.56;21087904;28;20024;-68
2023/07/24 19:27:07;;;;;;;6.55;5.07;;;;;;;26.14;48.62;101660.59;21086689;28;20089;-68
2023/07/24 19:37:08;;;;;;;6.43;5.72;;;;;;;26.14;48.32;101673.78;21086837;28;20484;-71
2023/07/24 19:47:10;;;;;;;5.68;5.07;;;;;;;26.11;48.65;101669.59;21085984;28;20036;-69
2023/07/24 19:57:11;;;;;;;5.93;5.32;;;;;;;26.09;48.68;101664.28;21085428;28;20074;-68
2023/07/24 20:07:13;;;;;;;7.07;5.20;;;;;;;26.06;48.76;101659.25;21083925;28;20200;-68
2023/07/24 20:17:17;;;;;;;5.15;4.68;;;;;;;26.04;48.89;101657.91;21083623;28;20036;-70
2023/07/24 20:27:18;;;;;;;5.68;5.07;;;;;;;26.06;51.92;101627.56;21081649;28;20044;-68
2023/07/24 20:37:20;;;;;;;5.80;5.20;;;;;;;26.51;52.67;101648.63;21081334;28;20089;-68
2023/07/24 20:47:21;;;;;;;5.93;5.32;;;;;;;26.79;52.09;101638.38;21080379;28;20108;-68
2023/07/24 20:57:22;;;;;;;5.35;4.85;;;;;;;27.00;51.58;101626.81;21078837;28;20415;-68
2023/07/24 21:07:24;;;;;;;5.65;5.15;;;;;;;27.18;51.02;101622.34;21079315;28;20105;-67
2023/07/24 21:17:25;;;;;;;5.38;4.88;;;;;;;27.29;50.93;101621.00;21078310;28;20032;-67
2023/07/24 21:27:27;;;;;;;5.40;4.90;;;;;;;27.45;50.52;101618.78;21077368;28;20553;-68
2023/07/24 21:37:28;;;;;;;5.50;5.00;;;;;;;27.54;50.24;101600.88;21077295;28;20116;-68
2023/07/24 21:47:30;;;;;;;5.80;5.28;;;;;;;27.60;50.13;101588.38;21076723;28;20036;-68
2023/07/24 21:57:31;;;;;;;5.40;4.90;;;;;;;27.66;49.96;101591.91;21076611;28;20044;-69
2023/07/24 22:07:32;;;;;;;6.05;5.47;;;;;;;27.78;49.88;101611.97;21077166;28;20077;-69
2023/07/24 22:17:34;;;;;;;6.15;5.55;;;;;;;27.81;49.82;101611.34;21074836;28;20040;-68
2023/07/24 22:27:39;;;;;;;5.75;5.15;;;;;;;27.90;49.59;101642.38;21074652;28;20036;-67
2023/07/24 22:37:43;;;;;;;5.35;4.85;;;;;;;27.92;49.46;101631.66;21073701;28;20097;-67
2023/07/24 22:47:45;;;;;;;5.13;4.63;;;;;;;27.99;49.41;101637.69;21076450;28;20047;-68
2023/07/24 22:57:49;;;;;;;5.60;5.10;;;;;;;27.97;49.52;101633.53;21089126;28;20043;-67
2023/07/24 23:07:54;;;;;;;5.43;4.93;;;;;;;28.11;49.43;101648.41;21088452;28;20205;-68
2023/07/24 23:17:56;;;;;;;5.72;4.80;;;;;;;28.12;49.43;101638.81;21087827;28;20032;-68
2023/07/24 23:27:57;;;;;;;5.60;5.07;;;;;;;28.14;49.32;101639.34;21086889;28;20129;-68
2023/07/24 23:37:58;;;;;;;5.35;4.53;;;;;;;28.21;49.30;101642.56;21086114;28;20036;-67
2023/07/24 23:48:01;;;;;;;5.82;5.18;;;;;;;28.23;49.26;101651.53;21085150;28;20104;-69
2023/07/24 23:58:02;;;;;;;5.43;4.93;;;;;;;28.25;49.27;101649.25;21083288;28;20040;-67
